^^
Grace C. Lehan Memorial Weather Station Historical Data
Daily Summary for April 12, 2021 Units:  Metric    English   Both
Daily Weekly Monthly Yearly
  High: Low: Average:
Temperature: 18.8 °C 7.2 °C 12.8 °C
Dew Point: 17.6 °C 6.3 °C 11.4 °C
Humidity: 96% 75% 91%
Wind Speed: 17.7km/h 0km/h 1.3km/h
Wind Gust: 37km/h - -
Wind- - SSE
Pressure: 1023.9 hPa 1008 hPa -
Precipitation: 20.57 mm    
 
 
Tabular Data for April 12, 2021
Time Temperature Dew Point Pressure Wind Wind Speed Wind Gust Humidity Rainfall Rate (Hourly) solar
00:04 11.8 °C 7.6 °C 1023.9 hPa East 0.5 km/h 6.4 km/h 75% 0 mm 0 W/m2
00:09 11.8 °C 7.6 °C 1023.9 hPa East 0.2 km/h 6.4 km/h 75% 0 mm 0 W/m2
00:14 11.8 °C 7.6 °C 1023.9 hPa Calm   6.4 km/h 75% 0 mm 0 W/m2
00:19 11.8 °C 7.6 °C 1023.6 hPa Calm   6.4 km/h 75% 0 mm 0 W/m2
00:24 11.8 °C 7.5 °C 1023.6 hPa East 0.5 km/h 6.4 km/h 75% 0 mm 0 W/m2
00:29 11.8 °C 7.5 °C 1023.2 hPa East 0.5 km/h 6.4 km/h 75.1% 0 mm 0 W/m2
00:34 11.8 °C 7.7 °C 1023.2 hPa Calm   6.4 km/h 76.2% 0 mm 0 W/m2
00:39 11.8 °C 7.9 °C 1023.2 hPa Calm   1.6 km/h 77% 0 mm 0 W/m2
00:44 11.7 °C 7.8 °C 1023.2 hPa Calm   1.6 km/h 77% 0 mm 0 W/m2
00:49 11.7 °C 7.8 °C 1023.2 hPa East 0.2 km/h 1.6 km/h 77% 0 mm 0 W/m2
00:54 11.7 °C 7.8 °C 1023.2 hPa Calm   1.6 km/h 77.4% 0 mm 0 W/m2
00:59 11.6 °C 7.9 °C 1022.9 hPa Calm   1.6 km/h 78% 0 mm 0 W/m2
01:04 11.6 °C 7.9 °C 1023.2 hPa Calm   1.6 km/h 78.2% 0 mm 0 W/m2
01:09 11.6 °C 8.1 °C 1023.2 hPa Calm     79% 0 mm 0 W/m2
01:14 11.6 °C 8.1 °C 1023.2 hPa Calm     79.3% 0 mm 0 W/m2
01:19 11.5 °C 8.2 °C 1023.2 hPa Calm     80.1% 0 mm 0 W/m2
01:24 11.4 °C 8.3 °C 1023.2 hPa Calm     81.1% 0 mm 0 W/m2
01:29 11.4 °C 8.4 °C 1022.9 hPa Calm     82% 0 mm 0 W/m2
01:34 11.3 °C 8.5 °C 1022.9 hPa Calm     82.6% 0 mm 0 W/m2
01:39 11.2 °C 8.5 °C 1022.9 hPa East 0.8 km/h 3.2 km/h 83.2% 0 mm 0 W/m2
01:44 11.1 °C 8.3 °C 1022.6 hPa East 0.3 km/h 3.2 km/h 83% 0 mm 0 W/m2
01:49 11 °C 8.2 °C 1022.6 hPa East 0.2 km/h 4.8 km/h 83% 0 mm 0 W/m2
01:54 10.9 °C 8.2 °C 1022.6 hPa East 0.8 km/h 4.8 km/h 83% 0 mm 0 W/m2
01:59 10.9 °C 8.2 °C 1022.9 hPa Calm   4.8 km/h 83% 0 mm 0 W/m2
02:04 11.1 °C 8.4 °C 1022.9 hPa Calm   4.8 km/h 83.8% 0.25 mm 0 W/m2
02:09 11.1 °C 8.5 °C 1022.6 hPa Calm   1.6 km/h 84% 0.25 mm 0 W/m2
02:14 11.1 °C 8.7 °C 1022.2 hPa Calm   1.6 km/h 85% 0.25 mm 0 W/m2
02:19 11.1 °C 8.6 °C 1021.9 hPa Calm   1.6 km/h 85% 0.25 mm 0 W/m2
02:24 11 °C 8.7 °C 1021.9 hPa East 0.2 km/h 1.6 km/h 85.4% 0.25 mm 0 W/m2
02:29 10.9 °C 8.7 °C 1022.2 hPa Calm   1.6 km/h 86% 0.25 mm 0 W/m2
02:34 10.9 °C 8.7 °C 1022.2 hPa Calm   1.6 km/h 86% 0.25 mm 0 W/m2
02:39 10.9 °C 8.7 °C 1021.9 hPa Calm     86.1% 0.51 mm 0 W/m2
02:44 10.9 °C 8.8 °C 1021.9 hPa East 0.2 km/h 1.6 km/h 87% 0.51 mm 0 W/m2
02:49 10.9 °C 8.8 °C 1021.6 hPa Calm   1.6 km/h 87% 0.51 mm 0 W/m2
02:54 10.8 °C 8.8 °C 1021.6 hPa Calm   1.6 km/h 87% 0.51 mm 0 W/m2
02:59 10.8 °C 8.8 °C 1021.6 hPa Calm   1.6 km/h 87.5% 0.51 mm 0 W/m2
03:04 10.8 °C 8.8 °C 1021.2 hPa Calm   1.6 km/h 87.8% 0.51 mm 0 W/m2
03:09 10.8 °C 8.9 °C 1021.6 hPa Calm     88% 0.51 mm 0 W/m2
03:14 10.7 °C 8.8 °C 1021.2 hPa Calm     88% 0.51 mm 0 W/m2
03:19 10.7 °C 8.8 °C 1021.2 hPa Calm     88% 0.51 mm 0 W/m2
03:24 10.7 °C 8.9 °C 1021.2 hPa East 0.2 km/h 3.2 km/h 88.9% 0.51 mm 0 W/m2
03:29 10.7 °C 8.9 °C 1021.2 hPa Calm   3.2 km/h 89% 0.51 mm 0 W/m2
03:34 10.7 °C 8.9 °C 1021.2 hPa East 0.3 km/h 3.2 km/h 89% 0.51 mm 0 W/m2
03:39 10.6 °C 8.9 °C 1020.9 hPa East 0.2 km/h 3.2 km/h 89% 0.25 mm 0 W/m2
03:44 10.6 °C 8.8 °C 1020.9 hPa Calm   3.2 km/h 89% 0.25 mm 0 W/m2
03:49 10.6 °C 8.8 °C 1020.9 hPa Calm   3.2 km/h 89% 0.25 mm 0 W/m2
03:54 10.6 °C 8.8 °C 1020.9 hPa ENE 0.3 km/h 4.8 km/h 89% 0.25 mm 0 W/m2
03:59 10.6 °C 8.8 °C 1020.9 hPa Calm   4.8 km/h 89% 0.25 mm 0 W/m2
04:00 10.6 °C 8.8 °C 1020.5 hPa Calm   4.8 km/h 89% 0.25 mm 0 W/m2
04:09 10.6 °C 8.8 °C 1020.5 hPa Calm   1.6 km/h 89% 0.25 mm 0 W/m2
04:14 10.6 °C 8.8 °C 1020.5 hPa Calm   1.6 km/h 89% 0.25 mm 0 W/m2
04:19 10.6 °C 8.8 °C 1020.5 hPa NE 0.3 km/h 3.2 km/h 89% 0.25 mm 0 W/m2
04:24 10.6 °C 8.8 °C 1019.9 hPa Calm   3.2 km/h 89% 0.25 mm 0 W/m2
04:29 10.6 °C 8.9 °C 1019.9 hPa Calm   3.2 km/h 89% 0.25 mm 0 W/m2
04:34 10.6 °C 8.9 °C 1019.9 hPa Calm   3.2 km/h 89% 0.25 mm 0 W/m2
04:39 10.6 °C 8.9 °C 1019.5 hPa Calm     89% 0 mm 0 W/m2
04:44 10.7 °C 8.9 °C 1019.5 hPa NE 0.2 km/h 3.2 km/h 89.3% 0 mm 0 W/m2
04:49 10.7 °C 9.1 °C 1019.5 hPa NE 0.6 km/h 4.8 km/h 90% 0 mm 0 W/m2
04:54 10.7 °C 9.1 °C 1019.5 hPa NE 0.3 km/h 4.8 km/h 90% 0 mm 0 W/m2
04:59 10.7 °C 9.1 °C 1019.2 hPa NNE 0.3 km/h 4.8 km/h 90% 0 mm 0 W/m2
05:04 10.7 °C 9.1 °C 1019.2 hPa NNE 0.3 km/h 4.8 km/h 90% 0 mm 0 W/m2
05:09 10.7 °C 9.2 °C 1019.2 hPa NNE 0.3 km/h 3.2 km/h 90% 0 mm 0 W/m2
05:14 10.7 °C 9.2 °C 1018.8 hPa NNE 0.5 km/h 3.2 km/h 90% 0 mm 0 W/m2
05:19 10.8 °C 9.2 °C 1018.5 hPa Calm   3.2 km/h 90% 0 mm 0 W/m2
05:24 10.8 °C 9.3 °C 1018.5 hPa NNE 0.2 km/h 3.2 km/h 90% 0 mm 0 W/m2
05:29 10.9 °C 9.3 °C 1018.2 hPa NNE 0.2 km/h 3.2 km/h 90% 0 mm 0 W/m2
05:34 10.9 °C 9.6 °C 1018.2 hPa Calm   3.2 km/h 91% 0 mm 0 W/m2
05:39 11 °C 9.6 °C 1018.5 hPa Calm     91% 0 mm 0 W/m2
05:44 11.2 °C 9.7 °C 1018.5 hPa NE 1.3 km/h 8 km/h 91% 1.78 mm 0 W/m2
05:49 11.3 °C 9.9 °C 1018.2 hPa Calm   8 km/h 91.2% 1.78 mm 0 W/m2
05:54 11.4 °C 10.2 °C 1018.2 hPa Calm   8 km/h 92% 2.29 mm 0 W/m2
05:59 11.5 °C 10.3 °C 1018.2 hPa Calm   8 km/h 92% 2.29 mm 0 W/m2
06:04 11.6 °C 10.3 °C 1018.2 hPa Calm   8 km/h 92% 2.29 mm 0 W/m2
06:09 11.6 °C 10.3 °C 1018.2 hPa North 1.8 km/h 11.3 km/h 92% 2.29 mm 0 W/m2
06:14 11.7 °C 10.4 °C 1018.2 hPa West 1.9 km/h 11.3 km/h 92% 2.29 mm 0 W/m2
06:19 11.7 °C 10.4 °C 1018.2 hPa Calm   11.3 km/h 92% 2.54 mm 0 W/m2
06:24 11.6 °C 10.3 °C 1018.2 hPa Calm   11.3 km/h 92% 2.54 mm 0 W/m2
06:29 11.6 °C 10.3 °C 1018.2 hPa Calm   11.3 km/h 92.1% 2.54 mm 0 W/m2
06:34 11.6 °C 10.4 °C 1017.8 hPa Calm   11.3 km/h 93% 2.54 mm 0 W/m2
06:39 11.6 °C 10.4 °C 1017.5 hPa Calm     93% 2.54 mm 0 W/m2
06:44 11.6 °C 10.4 °C 1017.5 hPa Calm     93% 2.54 mm 0 W/m2
06:49 11.6 °C 10.5 °C 1017.5 hPa Calm     93% 2.54 mm 0 W/m2
06:54 11.7 °C 10.6 °C 1017.5 hPa North 0.8 km/h 4.8 km/h 93% 2.54 mm 0 W/m2
06:59 11.7 °C 10.6 °C 1017.2 hPa Calm   4.8 km/h 93.1% 2.54 mm 0 W/m2
07:04 11.7 °C 10.8 °C 1017.2 hPa Calm   4.8 km/h 94% 2.54 mm 0 W/m2
07:09 11.8 °C 10.8 °C 1017.2 hPa Calm     94% 0.25 mm 0 W/m2
07:14 11.8 °C 10.8 °C 1016.8 hPa Calm     94% 0.25 mm 0 W/m2
07:19 11.8 °C 10.8 °C 1016.8 hPa Calm     94% 0.25 mm 0 W/m2
07:24 11.8 °C 10.9 °C 1016.8 hPa Calm     94% 0.25 mm 0 W/m2
07:29 11.8 °C 10.9 °C 1016.8 hPa Calm     94% 0.25 mm 0 W/m2
07:34 11.8 °C 10.9 °C 1016.8 hPa NNE 0.3 km/h 4.8 km/h 94% 0.25 mm 5 W/m2
07:39 11.9 °C 10.9 °C 1016.5 hPa Calm   4.8 km/h 94% 0 mm 7 W/m2
07:44 11.9 °C 11 °C 1016.5 hPa Calm   4.8 km/h 94% 0 mm 9 W/m2
07:49 12 °C 11.1 °C 1016.5 hPa ESE 0.5 km/h 8 km/h 94.2% 0 mm 11 W/m2
07:54 12.4 °C 11.7 °C 1016.1 hPa ESE 0.8 km/h 8 km/h 95% 0 mm 11 W/m2
07:59 13.3 °C 12.7 °C 1016.1 hPa ESE 0.6 km/h 8 km/h 95.7% 0 mm 5 W/m2
08:00 13.8 °C 13.2 °C 1016.1 hPa Calm   8 km/h 96% 0 mm 5 W/m2
08:09 14.7 °C 14.1 °C 1015.8 hPa SE 1.9 km/h 9.7 km/h 96% 0 mm 16 W/m2
08:14 14.9 °C 14.3 °C 1015.8 hPa SE 1.6 km/h 9.7 km/h 96% 0 mm 18 W/m2
08:19 15.2 °C 14.5 °C 1015.8 hPa SSE 2.3 km/h 9.7 km/h 96% 0 mm 26 W/m2
08:24 15.3 °C 14.7 °C 1015.8 hPa SSE 1.1 km/h 9.7 km/h 96% 0 mm 44 W/m2
08:29 15.5 °C 14.9 °C 1015.1 hPa SE 4.5 km/h 14.5 km/h 96% 0 mm 51 W/m2
08:34 15.7 °C 15.1 °C 1015.1 hPa SE 2.4 km/h 14.5 km/h 95.8% 0 mm 49 W/m2
08:39 15.9 °C 15.2 °C 1014.8 hPa SE 3.2 km/h 19.3 km/h 95.7% 0 mm 70 W/m2
08:44 16.1 °C 15.2 °C 1014.8 hPa SE 3.2 km/h 19.3 km/h 95% 0 mm 70 W/m2
08:49 16.2 °C 15.4 °C 1014.4 hPa SE 3.9 km/h 19.3 km/h 95% 0 mm 70 W/m2
08:54 16.4 °C 15.5 °C 1014.4 hPa SSE 3.4 km/h 19.3 km/h 94.6% 0 mm 56 W/m2
08:59 16.6 °C 15.6 °C 1014.1 hPa SE 5 km/h 19.3 km/h 94% 0 mm 128 W/m2
09:04 16.7 °C 15.8 °C 1013.8 hPa SE 2.6 km/h 22.5 km/h 94% 0 mm 128 W/m2
09:09 16.9 °C 15.8 °C 1013.8 hPa SE 2.9 km/h 22.5 km/h 93.1% 0 mm 62 W/m2
09:14 17 °C 15.9 °C 1013.4 hPa SSE 2.7 km/h 22.5 km/h 93% 0 mm 69 W/m2
09:19 17.2 °C 16 °C 1013.4 hPa SSE 2.7 km/h 22.5 km/h 93% 0 mm 58 W/m2
09:24 17.2 °C 16.1 °C 1013.4 hPa SSE 2.7 km/h 22.5 km/h 93% 0 mm 72 W/m2
09:29 17.3 °C 16.2 °C 1013.4 hPa SSE 3.5 km/h 22.5 km/h 93% 0 mm 69 W/m2
09:34 17.3 °C 16.2 °C 1013.4 hPa SSE 3.7 km/h 22.5 km/h 93% 0 mm 69 W/m2
09:39 17.4 °C 16.2 °C 1013.8 hPa SSE 5.5 km/h 20.9 km/h 93% 0.51 mm 32 W/m2
09:44 17.4 °C 16.3 °C 1013.8 hPa South 4.5 km/h 20.9 km/h 93% 1.52 mm 18 W/m2
09:49 17.3 °C 16.2 °C 1014.1 hPa South 4.3 km/h 20.9 km/h 93% 1.78 mm 26 W/m2
09:54 17.3 °C 16.2 °C 1013.8 hPa South 3.1 km/h 20.9 km/h 93% 2.03 mm 37 W/m2
09:59 17.3 °C 16.1 °C 1013.4 hPa South 1.6 km/h 20.9 km/h 93% 2.29 mm 44 W/m2
10:04 17.3 °C 16.2 °C 1013.4 hPa South 1.4 km/h 20.9 km/h 93.4% 2.79 mm 54 W/m2
10:09 17.3 °C 16.3 °C 1013.1 hPa SSE 0.3 km/h 6.4 km/h 94% 3.3 mm 74 W/m2
10:14 17.3 °C 16.3 °C 1012.8 hPa SSE 0.2 km/h 6.4 km/h 94% 3.56 mm 56 W/m2
10:19 17.3 °C 16.3 °C 1012.4 hPa SSE 0.2 km/h 6.4 km/h 94% 3.81 mm 58 W/m2
10:24 17.3 °C 16.3 °C 1012.1 hPa SE 0.3 km/h 6.4 km/h 94% 3.81 mm 56 W/m2
10:29 17.3 °C 16.3 °C 1012.1 hPa SSE 2.4 km/h 14.5 km/h 94% 4.06 mm 62 W/m2
10:34 17.2 °C 16.3 °C 1012.1 hPa SE 2.4 km/h 14.5 km/h 94% 4.83 mm 118 W/m2
10:39 17.2 °C 16.3 °C 1011.7 hPa SE 1.8 km/h 9.7 km/h 94% 4.83 mm 158 W/m2
10:44 17.3 °C 16.4 °C 1011.7 hPa ESE 2.3 km/h 9.7 km/h 94.3% 4.83 mm 290 W/m2
10:49 17.4 °C 16.6 °C 1011.1 hPa SE 1.4 km/h 9.7 km/h 95% 4.83 mm 290 W/m2
10:54 17.4 °C 16.6 °C 1010.7 hPa SE 2.7 km/h 24.1 km/h 95% 4.83 mm 120 W/m2
10:59 17.5 °C 16.7 °C 1010.7 hPa SSE 3.7 km/h 24.1 km/h 95% 5.08 mm 97 W/m2
11:04 17.6 °C 16.8 °C 1010.4 hPa SE 1.9 km/h 24.1 km/h 95% 5.08 mm 65 W/m2
11:09 17.6 °C 16.8 °C 1010.4 hPa SE 1.3 km/h 12.9 km/h 95% 3.3 mm 83 W/m2
11:14 17.7 °C 16.8 °C 1010 hPa SSE 5 km/h 20.9 km/h 95% 3.3 mm 47 W/m2
11:19 17.7 °C 16.9 °C 1009.7 hPa SSE 5 km/h 20.9 km/h 95% 3.56 mm 51 W/m2
11:24 17.8 °C 17 °C 1009.7 hPa South 8.4 km/h 20.9 km/h 95% 3.56 mm 118 W/m2
11:29 18 °C 17.2 °C 1009.4 hPa SSE 10.6 km/h 22.5 km/h 95% 3.56 mm 144 W/m2
11:34 18.2 °C 17.3 °C 1009.4 hPa South 10.6 km/h 27.4 km/h 95% 3.56 mm 197 W/m2
11:39 18.3 °C 17.5 °C 1009 hPa South 10.8 km/h 27.4 km/h 95% 1.78 mm 179 W/m2
11:44 18.5 °C 17.6 °C 1008.7 hPa South 10.9 km/h 27.4 km/h 94.3% 1.78 mm 158 W/m2
11:49 18.6 °C 17.6 °C 1008.7 hPa South 13.2 km/h 35.4 km/h 93.5% 1.78 mm 132 W/m2
11:54 18.8 °C 17.5 °C 1008.4 hPa South 7.4 km/h 35.4 km/h 92.1% 1.78 mm 179 W/m2
11:59 18.8 °C 17.5 °C 1008.4 hPa South 9.2 km/h 35.4 km/h 92% 1.78 mm 113 W/m2
12:00 18.8 °C 17.5 °C 1008.4 hPa South 17.7 km/h 35.4 km/h 92% 1.78 mm 35 W/m2
12:09 18.7 °C 17.4 °C 1008.4 hPa South 8.2 km/h 24.1 km/h 92.2% 1.52 mm 46 W/m2
12:14 18.6 °C 17.4 °C 1008.4 hPa South 6.4 km/h 24.1 km/h 92.6% 1.78 mm 35 W/m2
12:19 18.4 °C 17.3 °C 1008.7 hPa South 10.1 km/h 27.4 km/h 93% 1.78 mm 51 W/m2
12:24 18.3 °C 17.1 °C 1008.7 hPa South 10.3 km/h 27.4 km/h 92.6% 1.78 mm 51 W/m2
12:29 18.2 °C 17 °C 1008.7 hPa South 7.9 km/h 27.4 km/h 92.7% 2.03 mm 67 W/m2
12:34 18.2 °C 17.1 °C 1008.7 hPa South 5.8 km/h 27.4 km/h 93% 2.03 mm 109 W/m2
12:39 18.2 °C 17.1 °C 1008.7 hPa South 7.1 km/h 37 km/h 93% 1.52 mm 130 W/m2
12:44 18.1 °C 16.8 °C 1008.4 hPa South 4.2 km/h 37 km/h 92.6% 1.52 mm 76 W/m2
12:49 18 °C 16.7 °C 1008.4 hPa South 5.1 km/h 37 km/h 92% 1.52 mm 62 W/m2
12:54 18 °C 16.7 °C 1008.4 hPa South 6.4 km/h 37 km/h 92% 1.52 mm 70 W/m2
12:59 17.9 °C 16.7 °C 1008.4 hPa South 6.1 km/h 37 km/h 92% 1.52 mm 69 W/m2
13:00 17.9 °C 16.6 °C 1008 hPa South 4.8 km/h 37 km/h 92% 1.78 mm 73 W/m2
13:30 17.3 °C 16.2 °C 1008.4 hPa South 3.2 km/h 22.5 km/h 93% 7.62 mm 26 W/m2
14:00 16.1 °C 15.2 °C 1008.4 hPa WSW 3.2 km/h 24.1 km/h 94% 9.4 mm 30 W/m2
14:30 15.9 °C 14.9 °C 1008.4 hPa Calm   16.1 km/h 94% 10.16 mm 54 W/m2
15:00 15.8 °C 15 °C 1008.7 hPa Calm   1.6 km/h 95% 4.06 mm 54 W/m2
15:30 16.1 °C 15.5 °C 1008.7 hPa Calm     96% 1.27 mm 71 W/m2
16:04 15.6 °C 14.8 °C 1009 hPa WSW 0.2 km/h 1.6 km/h 95.1% 1.27 mm 71 W/m2
16:09 15.5 °C 14.7 °C 1009 hPa Calm   1.6 km/h 95% 0 mm 11 W/m2
16:14 15.4 °C 14.7 °C 1009 hPa Calm   1.6 km/h 95% 0 mm 9 W/m2
16:19 15.4 °C 14.6 °C 1009 hPa Calm   1.6 km/h 95% 0 mm 7 W/m2
16:24 15.3 °C 14.4 °C 1009 hPa Calm   1.6 km/h 94.8% 0 mm 5 W/m2
16:29 15.2 °C 14.3 °C 1009 hPa Calm   1.6 km/h 94.3% 0 mm 5 W/m2
16:34 15.1 °C 14.3 °C 1009.4 hPa Calm   1.6 km/h 95% 0 mm 0 W/m2
16:39 14.9 °C 14.1 °C 1009.4 hPa Calm     94.9% 0 mm 0 W/m2
16:44 14.8 °C 13.9 °C 1009.7 hPa Calm     94% 0 mm 0 W/m2
16:49 14.7 °C 13.9 °C 1009.7 hPa Calm     94.8% 0 mm 0 W/m2
16:54 14.7 °C 13.9 °C 1009.7 hPa Calm     95% 0 mm 0 W/m2
16:59 14.6 °C 13.8 °C 1009.7 hPa Calm     95% 0 mm 0 W/m2
17:04 14.6 °C 13.7 °C 1009.7 hPa Calm     95% 0 mm 0 W/m2
17:09 14.4 °C 13.7 °C 1009.7 hPa Calm     95% 0 mm 0 W/m2
17:14 14.4 °C 13.6 °C 1010 hPa Calm     95% 0 mm 0 W/m2
17:19 14.3 °C 13.5 °C 1010 hPa Calm     95% 0 mm 0 W/m2
17:24 14.2 °C 13.4 °C 1010 hPa Calm     95% 0 mm 0 W/m2
17:29 14.1 °C 13.3 °C 1010 hPa Calm     95% 0 mm 0 W/m2
17:32 14 °C 13.2 °C 1010 hPa Calm     95% 0 mm 0 W/m2
18:00 13.6 °C 12.8 °C 1010.7 hPa Calm   9.7 km/h 95% 0 mm 0 W/m2
18:30 12.9 °C 12.2 °C 1011.4 hPa WNW 1.6 km/h 8 km/h 95% 0 mm 0 W/m2
19:00 12.4 °C 11.6 °C 1011.7 hPa WNW 1.6 km/h 8 km/h 95% 0 mm 0 W/m2
19:30 11.7 °C 10.7 °C 1012.1 hPa Calm   8 km/h 94% 0 mm 0 W/m2
20:04 10.9 °C 10 °C 1012.4 hPa Calm   8 km/h 94% 0 mm 0 W/m2
20:09 10.8 °C 9.9 °C 1012.4 hPa Calm     94% 0 mm 0 W/m2
20:14 10.8 °C 9.9 °C 1012.4 hPa Calm     94.7% 0 mm 0 W/m2
20:19 10.7 °C 9.9 °C 1012.4 hPa Calm     95% 0 mm 0 W/m2
20:24 10.7 °C 9.9 °C 1012.4 hPa Calm     95% 0 mm 0 W/m2
20:29 10.6 °C 9.8 °C 1012.4 hPa WNW 0.3 km/h 4.8 km/h 95% 0 mm 0 W/m2
20:34 10.6 °C 9.7 °C 1012.8 hPa Calm   4.8 km/h 94.7% 0 mm 0 W/m2
20:39 10.4 °C 9.6 °C 1012.8 hPa Calm     94.1% 0 mm 0 W/m2
20:44 10.4 °C 9.6 °C 1012.8 hPa Calm     95% 0 mm 0 W/m2
20:49 10.3 °C 9.6 °C 1012.8 hPa Calm     95% 0 mm 0 W/m2
20:54 10.2 °C 9.4 °C 1012.8 hPa Calm     94.4% 0 mm 0 W/m2
20:59 10.2 °C 9.2 °C 1012.8 hPa Calm     94% 0 mm 0 W/m2
21:04 10.1 °C 9.1 °C 1012.8 hPa Calm     94% 0 mm 0 W/m2
21:09 9.9 °C 9.1 °C 1012.8 hPa Calm     94% 0 mm 0 W/m2
21:14 9.8 °C 8.9 °C 1012.8 hPa Calm     94% 0 mm 0 W/m2
21:19 9.8 °C 8.8 °C 1012.8 hPa Calm     94% 0 mm 0 W/m2
21:24 9.7 °C 8.8 °C 1012.8 hPa Calm     94% 0 mm 0 W/m2
21:29 9.6 °C 8.7 °C 1013.1 hPa Calm     94% 0 mm 0 W/m2
21:34 9.6 °C 8.6 °C 1013.1 hPa Calm     94% 0 mm 0 W/m2
21:39 9.4 °C 8.6 °C 1013.1 hPa Calm     94% 0 mm 0 W/m2
21:44 9.4 °C 8.5 °C 1013.1 hPa Calm     94% 0 mm 0 W/m2
21:49 9.3 °C 8.4 °C 1012.8 hPa Calm     94% 0 mm 0 W/m2
21:54 9.2 °C 8.3 °C 1012.8 hPa Calm     94% 0 mm 0 W/m2
21:59 9.2 °C 8.2 °C 1012.8 hPa Calm     94% 0 mm 0 W/m2
22:04 9.1 °C 8.2 °C 1012.8 hPa Calm     94% 0 mm 0 W/m2
22:09 8.9 °C 8.1 °C 1013.1 hPa Calm     94% 0 mm 0 W/m2
22:14 8.8 °C 7.9 °C 1013.1 hPa Calm     94% 0 mm 0 W/m2
22:19 8.7 °C 7.8 °C 1013.1 hPa Calm     94% 0 mm 0 W/m2
22:24 8.6 °C 7.7 °C 1013.1 hPa Calm     94% 0 mm 0 W/m2
22:29 8.5 °C 7.6 °C 1013.1 hPa Calm     94% 0 mm 0 W/m2
22:34 8.4 °C 7.5 °C 1013.1 hPa Calm     94% 0 mm 0 W/m2
22:39 8.3 °C 7.4 °C 1013.1 hPa Calm     94% 0 mm 0 W/m2
22:44 8.2 °C 7.3 °C 1012.8 hPa Calm     94% 0 mm 0 W/m2
22:49 8.2 °C 7.2 °C 1012.8 hPa Calm     94% 0 mm 0 W/m2
22:54 8.1 °C 7.2 °C 1012.8 hPa Calm     94% 0 mm 0 W/m2
22:59 8 °C 7.2 °C 1012.8 hPa Calm     94.6% 0 mm 0 W/m2
23:09 7.8 °C 7 °C 1012.4 hPa WNW 0.5 km/h 4.8 km/h 94.6% 0 mm 0 W/m2
23:14 7.8 °C 6.8 °C 1012.4 hPa Calm   4.8 km/h 94% 0 mm 0 W/m2
23:19 7.7 °C 6.9 °C 1012.4 hPa Calm   4.8 km/h 94.5% 0 mm 0 W/m2
23:24 7.7 °C 6.9 °C 1012.4 hPa WNW 0.5 km/h 4.8 km/h 95% 0 mm 0 W/m2
23:29 7.7 °C 6.9 °C 1012.4 hPa Calm   4.8 km/h 95% 0 mm 0 W/m2
23:34 7.6 °C 6.9 °C 1012.4 hPa Calm   4.8 km/h 95% 0 mm 0 W/m2
23:39 7.6 °C 6.8 °C 1012.4 hPa Calm     95% 0 mm 0 W/m2
23:44 7.5 °C 6.8 °C 1012.1 hPa Calm     94.9% 0 mm 0 W/m2
23:49 7.4 °C 6.5 °C 1012.1 hPa Calm     94% 0 mm 0 W/m2
23:54 7.3 °C 6.4 °C 1012.1 hPa Calm     94% 0 mm 0 W/m2
23:59 7.2 °C 6.3 °C 1012.1 hPa Calm     94% 0 mm 0 W/m2
Hartford County Weather
Compliments of Weather Underground - 4 mb